createdAt,value
2022-11-24T00:01:52.455Z,42.60
2022-11-24T00:04:23.785Z,48.63
2022-11-24T00:06:53.321Z,45.77
2022-11-24T00:09:25.050Z,45.77
2022-11-24T00:11:53.922Z,40.67
2022-11-24T00:14:28.160Z,45.37
2022-11-24T00:16:56.989Z,42.50
2022-11-24T00:19:28.221Z,40.60
2022-11-24T00:21:58.884Z,47.83
2022-11-24T00:24:29.537Z,50.60
2022-11-24T00:26:58.326Z,46.70
2022-11-24T00:29:27.150Z,42.63
2022-11-24T00:31:57.550Z,45.20
2022-11-24T00:34:26.510Z,47.13
2022-11-24T00:36:57.988Z,46.07
2022-11-24T00:39:26.864Z,35.00
2022-11-24T00:41:56.268Z,38.83
2022-11-24T00:44:28.177Z,44.10
2022-11-24T00:46:59.564Z,42.33
2022-11-24T00:49:29.628Z,44.53
2022-11-24T00:51:58.387Z,35.70
2022-11-24T00:54:27.270Z,41.43
2022-11-24T00:56:56.593Z,41.20
2022-11-24T00:59:25.582Z,44.67
2022-11-24T01:01:55.050Z,43.17
2022-11-24T01:04:24.021Z,46.07
2022-11-24T01:06:55.922Z,39.93
2022-11-24T01:09:26.743Z,44.80
2022-11-24T01:12:01.811Z,42.63
2022-11-24T01:14:34.562Z,44.37
2022-11-24T01:17:03.768Z,48.50
2022-11-24T01:19:32.986Z,46.37
2022-11-24T01:22:04.430Z,48.33
2022-11-24T01:24:33.390Z,46.70
2022-11-24T01:27:03.777Z,51.37
2022-11-24T01:29:32.544Z,47.07
2022-11-24T01:32:02.568Z,45.57
2022-11-24T01:34:31.996Z,51.63
2022-11-24T01:37:01.168Z,52.53
2022-11-24T01:39:32.396Z,45.67
2022-11-24T01:42:02.329Z,47.43
2022-11-24T01:44:38.390Z,50.37
2022-11-24T01:47:27.869Z,50.73
2022-11-24T01:50:03.102Z,52.70
2022-11-24T01:52:36.911Z,53.00
2022-11-24T01:55:13.154Z,53.05
2022-11-24T01:57:50.156Z,51.43
2022-11-24T02:00:19.582Z,52.90
2022-11-24T02:02:49.828Z,46.00
2022-11-24T02:05:23.799Z,48.03
2022-11-24T02:07:56.600Z,53.73
2022-11-24T02:10:28.374Z,52.07
2022-11-24T02:13:00.252Z,49.07
2022-11-24T02:15:30.691Z,51.93
2022-11-24T02:18:00.055Z,50.33
2022-11-24T02:20:28.739Z,54.43
2022-11-24T02:23:09.787Z,49.53
2022-11-24T02:25:49.293Z,54.07
2022-11-24T02:28:20.826Z,58.07
2022-11-24T02:30:50.866Z,59.37
2022-11-24T02:33:22.061Z,53.50
2022-11-24T02:35:53.087Z,55.90
2022-11-24T02:38:31.154Z,50.17
2022-11-24T02:41:02.969Z,50.03
2022-11-24T02:43:35.837Z,42.27
2022-11-24T02:46:05.384Z,43.77
2022-11-24T02:48:36.747Z,46.67
2022-11-24T02:51:06.523Z,38.40
2022-11-24T02:53:37.957Z,40.97
2022-11-24T02:56:08.109Z,39.27
2022-11-24T02:58:36.777Z,41.37
2022-11-24T03:01:05.870Z,39.13
2022-11-24T03:03:34.975Z,38.77
2022-11-24T03:06:07.007Z,38.57
2022-11-24T03:08:35.872Z,38.65
2022-11-24T03:11:05.641Z,35.67
2022-11-24T03:13:34.220Z,34.43
2022-11-24T03:16:02.946Z,32.53
2022-11-24T03:18:31.545Z,30.13
2022-11-24T03:21:01.172Z,29.85
2022-11-24T03:23:29.884Z,35.63
2022-11-24T03:26:08.992Z,33.90
2022-11-24T03:28:37.606Z,33.97
2022-11-24T03:31:06.859Z,34.53
2022-11-24T03:33:35.942Z,32.43
2022-11-24T03:36:09.072Z,33.30
2022-11-24T03:38:38.157Z,32.47
2022-11-24T03:41:06.888Z,32.07
2022-11-24T03:43:40.435Z,32.17
2022-11-24T03:46:12.885Z,32.05
2022-11-24T03:48:41.923Z,30.97
2022-11-24T03:51:11.324Z,30.23
2022-11-24T03:53:40.485Z,29.93
2022-11-24T03:56:09.457Z,27.87
2022-11-24T03:58:38.078Z,31.87
2022-11-24T04:01:06.710Z,29.10
2022-11-24T04:03:35.405Z,29.83
2022-11-24T04:06:06.560Z,27.50
2022-11-24T04:08:35.633Z,27.97
2022-11-24T04:11:04.895Z,31.90
2022-11-24T04:13:33.606Z,29.30
2022-11-24T04:16:06.244Z,28.43
2022-11-24T04:18:37.751Z,29.10
2022-11-24T04:21:06.598Z,28.40
2022-11-24T04:23:35.253Z,27.90
2022-11-24T04:26:04.079Z,27.15
2022-11-24T04:28:38.043Z,23.97
2022-11-24T04:31:12.162Z,29.73
2022-11-24T04:33:41.064Z,20.93
2022-11-24T04:36:10.300Z,23.87
2022-11-24T04:39:22.852Z,30.53
2022-11-24T04:41:28.333Z,26.67
2022-11-24T04:43:57.231Z,24.50
2022-11-24T04:46:37.859Z,25.05
2022-11-24T04:49:11.008Z,25.70
2022-11-24T04:51:40.242Z,27.03
2022-11-24T04:54:11.952Z,25.37
2022-11-24T04:56:41.451Z,27.77
2022-11-24T04:59:17.070Z,26.30
2022-11-24T05:01:49.665Z,24.23
2022-11-24T05:04:20.547Z,23.73
2022-11-24T05:06:49.271Z,25.00
2022-11-24T05:09:18.289Z,26.47
2022-11-24T05:11:51.387Z,30.35
2022-11-24T05:14:20.501Z,24.40
2022-11-24T05:16:49.840Z,25.50
2022-11-24T05:19:18.592Z,22.73
2022-11-24T05:21:48.579Z,23.60
2022-11-24T05:24:17.218Z,22.03
2022-11-24T05:26:45.905Z,27.63
2022-11-24T05:31:59.076Z,26.55
2022-11-24T05:34:28.255Z,23.53
2022-11-24T05:37:02.427Z,24.13
2022-11-24T05:42:23.437Z,22.93
2022-11-24T05:44:52.806Z,30.17
2022-11-24T05:47:25.329Z,27.33
2022-11-24T05:49:56.401Z,27.30
2022-11-24T05:52:28.130Z,24.97
2022-11-24T05:54:56.762Z,27.60
2022-11-24T05:57:28.245Z,25.60
2022-11-24T05:59:56.867Z,27.27
2022-11-24T06:02:31.960Z,27.47
2022-11-24T06:05:00.597Z,28.60
2022-11-24T06:07:29.273Z,30.07
2022-11-24T06:09:57.846Z,36.80
2022-11-24T06:12:26.688Z,35.30
2022-11-24T06:14:55.479Z,33.37
2022-11-24T06:17:24.569Z,35.73
2022-11-24T06:19:53.331Z,31.43
2022-11-24T06:22:21.932Z,31.03
2022-11-24T06:24:50.624Z,25.93
2022-11-24T06:27:19.190Z,24.00
2022-11-24T06:29:47.720Z,26.83
2022-11-24T06:32:19.663Z,26.27
2022-11-24T06:34:49.106Z,26.57
2022-11-24T06:37:18.410Z,30.57
2022-11-24T06:39:48.797Z,30.10
2022-11-24T06:42:18.562Z,26.93
2022-11-24T06:44:47.493Z,33.80
2022-11-24T06:47:16.609Z,25.27
2022-11-24T06:49:46.875Z,25.83
2022-11-24T06:52:17.576Z,31.50
2022-11-24T06:54:46.514Z,25.90
2022-11-24T06:57:18.150Z,25.13
2022-11-24T06:59:49.299Z,28.10
2022-11-24T07:02:18.094Z,27.73
2022-11-24T07:04:47.562Z,26.00
2022-11-24T07:07:17.869Z,25.03
2022-11-24T07:09:46.613Z,31.50
2022-11-24T07:12:16.001Z,28.87
2022-11-24T07:14:47.810Z,28.23
2022-11-24T07:17:16.979Z,29.93
2022-11-24T07:19:45.673Z,28.30
2022-11-24T07:22:15.536Z,27.43
2022-11-24T07:24:44.076Z,28.97
2022-11-24T07:27:12.826Z,34.53
2022-11-24T07:29:41.918Z,30.37
2022-11-24T07:32:10.729Z,32.10
2022-11-24T07:34:39.616Z,31.33
2022-11-24T07:37:08.404Z,31.47
2022-11-24T07:39:37.223Z,35.77
2022-11-24T07:42:06.440Z,29.43
2022-11-24T07:44:35.530Z,30.27
2022-11-24T07:47:04.527Z,31.67
2022-11-24T07:49:33.122Z,30.57
2022-11-24T07:52:01.906Z,28.50
2022-11-24T07:54:30.905Z,36.00
2022-11-24T07:56:59.502Z,30.63
2022-11-24T07:59:28.195Z,31.20
2022-11-24T08:01:57.107Z,31.77
2022-11-24T08:04:25.894Z,38.73
2022-11-24T08:06:54.659Z,31.47
2022-11-24T08:09:23.557Z,33.15
2022-11-24T08:11:52.273Z,35.67
2022-11-24T08:14:21.027Z,27.83
2022-11-24T08:16:50.767Z,28.80
2022-11-24T08:19:19.803Z,29.10
2022-11-24T08:21:48.572Z,28.03
2022-11-24T08:24:17.852Z,30.33
2022-11-24T08:26:46.928Z,26.93
2022-11-24T08:29:16.492Z,25.93
2022-11-24T08:31:45.480Z,37.70
2022-11-24T08:34:14.452Z,29.73
2022-11-24T08:36:43.092Z,29.10
2022-11-24T08:39:11.826Z,28.83
2022-11-24T08:41:41.135Z,27.03
2022-11-24T08:44:10.201Z,26.63
2022-11-24T08:46:39.883Z,27.27
2022-11-24T08:49:09.432Z,22.07
2022-11-24T08:51:38.615Z,30.50
2022-11-24T08:54:09.651Z,27.00
2022-11-24T08:56:38.367Z,27.17
2022-11-24T08:59:07.379Z,26.70
2022-11-24T09:01:36.612Z,29.73
2022-11-24T09:04:06.005Z,25.63
2022-11-24T09:06:35.065Z,26.40
2022-11-24T09:09:04.158Z,24.33
2022-11-24T09:11:34.639Z,27.03
2022-11-24T09:14:04.407Z,28.13
2022-11-24T09:16:33.500Z,27.10
2022-11-24T09:19:04.722Z,23.93
2022-11-24T09:21:37.310Z,27.20
2022-11-24T09:24:07.645Z,30.33
2022-11-24T09:26:43.135Z,24.03
2022-11-24T09:29:15.722Z,26.13
2022-11-24T09:31:45.286Z,27.03
2022-11-24T09:34:15.908Z,29.30
2022-11-24T09:36:45.304Z,25.07
2022-11-24T09:39:14.384Z,27.87
2022-11-24T09:41:57.900Z,24.73
2022-11-24T09:44:46.239Z,28.57
2022-11-24T09:47:25.741Z,27.20
2022-11-24T09:50:01.020Z,26.60
2022-11-24T09:52:40.874Z,29.37
2022-11-24T09:55:28.355Z,24.87
2022-11-24T09:58:09.490Z,27.67
2022-11-24T10:00:38.784Z,33.47
2022-11-24T10:03:18.523Z,29.60
2022-11-24T10:05:51.167Z,25.97
2022-11-24T10:08:34.096Z,25.50
2022-11-24T10:11:11.347Z,26.87
2022-11-24T10:13:59.798Z,27.90
2022-11-24T10:16:45.358Z,27.93
2022-11-24T10:19:36.318Z,26.90
2022-11-24T10:22:23.637Z,25.47
2022-11-24T10:25:12.053Z,24.40
2022-11-24T10:27:44.111Z,29.97
2022-11-24T10:30:19.618Z,29.43
2022-11-24T10:32:49.986Z,27.97
2022-11-24T10:35:27.609Z,25.03
2022-11-24T10:38:08.659Z,30.07
2022-11-24T10:40:56.405Z,30.43
2022-11-24T10:43:28.020Z,29.17
2022-11-24T10:46:08.123Z,29.27
2022-11-24T10:48:44.272Z,25.07
2022-11-24T10:51:39.593Z,28.60
2022-11-24T10:54:15.771Z,27.33
2022-11-24T10:56:48.747Z,26.67
2022-11-24T10:59:37.518Z,29.33
2022-11-24T11:02:29.363Z,27.07
2022-11-24T11:04:58.200Z,29.93
2022-11-24T11:07:27.456Z,29.80
2022-11-24T11:10:27.544Z,30.40
2022-11-24T11:12:56.172Z,28.27
2022-11-24T11:15:29.112Z,31.90
2022-11-24T11:18:00.440Z,27.53
2022-11-24T11:20:31.937Z,30.13
2022-11-24T11:23:13.477Z,32.40
2022-11-24T11:25:43.297Z,33.13
2022-11-24T11:28:23.398Z,28.37
2022-11-24T11:31:16.820Z,27.40
2022-11-24T11:34:05.925Z,30.30
2022-11-24T11:36:41.401Z,32.17
2022-11-24T11:39:21.151Z,26.47
2022-11-24T11:41:54.947Z,32.20
2022-11-24T11:44:35.233Z,31.33
2022-11-24T11:47:14.104Z,29.97
2022-11-24T11:49:44.180Z,31.53
2022-11-24T11:52:43.531Z,32.30
2022-11-24T11:55:45.311Z,34.23
2022-11-24T11:59:01.100Z,29.87
2022-11-24T12:02:06.838Z,31.93
2022-11-24T12:04:49.831Z,32.00
2022-11-24T12:07:45.662Z,33.27
2022-11-24T12:10:24.485Z,31.13
2022-11-24T12:13:14.725Z,31.13
2022-11-24T12:15:48.257Z,30.90
2022-11-24T12:21:29.761Z,39.83
2022-11-24T12:24:10.282Z,39.30
2022-11-24T12:26:49.637Z,36.13
2022-11-24T12:29:45.372Z,34.50
2022-11-24T12:32:34.471Z,40.13
2022-11-24T12:35:15.342Z,40.03
2022-11-24T12:37:57.391Z,32.47
2022-11-24T12:40:46.572Z,33.23
2022-11-24T12:43:27.069Z,37.10
2022-11-24T12:46:01.846Z,33.73
2022-11-24T12:48:57.323Z,37.27
2022-11-24T12:51:32.064Z,36.90
2022-11-24T12:54:05.600Z,34.40
2022-11-24T12:56:42.362Z,34.60
2022-11-24T12:59:25.500Z,35.40
2022-11-24T13:02:11.467Z,32.37
2022-11-24T13:04:46.807Z,33.33
2022-11-24T13:07:20.963Z,30.30
2022-11-24T13:13:12.606Z,32.63
2022-11-24T13:19:17.363Z,36.93
2022-11-24T13:22:09.726Z,38.07
2022-11-24T13:24:40.200Z,35.93
2022-11-24T13:27:35.485Z,38.77
2022-11-24T13:30:54.006Z,34.87
2022-11-24T13:33:37.407Z,43.60
2022-11-24T13:36:30.700Z,41.67
2022-11-24T13:39:00.277Z,40.17
2022-11-24T13:42:10.542Z,34.67
2022-11-24T13:45:01.150Z,45.50
2022-11-24T13:47:39.100Z,40.33
2022-11-24T13:50:22.996Z,42.90
2022-11-24T13:53:00.655Z,41.25
2022-11-24T13:55:38.209Z,41.60
2022-11-24T13:58:29.637Z,37.60
2022-11-24T14:01:05.886Z,42.20
2022-11-24T14:03:36.909Z,41.17
2022-11-24T14:06:06.199Z,37.03
2022-11-24T14:08:37.588Z,38.30
2022-11-24T14:11:13.825Z,40.27
2022-11-24T14:13:42.908Z,38.13
2022-11-24T14:16:17.198Z,39.53
2022-11-24T14:18:48.046Z,40.10
2022-11-24T14:21:24.367Z,41.93
2022-11-24T14:23:55.912Z,48.10
2022-11-24T14:26:30.539Z,43.13
2022-11-24T14:29:06.292Z,39.53
2022-11-24T14:31:35.611Z,36.27
2022-11-24T14:34:20.697Z,38.07
2022-11-24T14:36:50.214Z,38.00
2022-11-24T14:39:22.456Z,39.00
2022-11-24T14:41:55.653Z,36.87
2022-11-24T14:44:26.607Z,40.37
2022-11-24T14:47:03.923Z,38.40
2022-11-24T14:49:34.365Z,34.80
2022-11-24T14:52:09.260Z,38.63
2022-11-24T14:54:46.498Z,40.63
2022-11-24T14:57:29.810Z,38.00
2022-11-24T15:00:15.086Z,48.20
2022-11-24T15:02:47.777Z,38.87
2022-11-24T15:05:18.412Z,42.67
2022-11-24T15:07:49.678Z,43.03
2022-11-24T15:10:22.574Z,41.63
2022-11-24T15:12:56.226Z,43.30
2022-11-24T15:15:30.481Z,44.77
2022-11-24T15:20:31.620Z,49.93
2022-11-24T15:23:23.084Z,51.63
2022-11-24T15:25:53.768Z,51.10
2022-11-24T15:28:25.257Z,43.63
2022-11-24T15:30:54.550Z,56.00
2022-11-24T15:33:23.881Z,49.73
2022-11-24T15:35:53.059Z,48.30
2022-11-24T15:38:25.077Z,47.30
2022-11-24T15:40:57.695Z,43.73
2022-11-24T15:43:30.805Z,43.83
2022-11-24T15:46:00.498Z,48.53
2022-11-24T15:48:29.819Z,42.23
2022-11-24T15:51:01.264Z,44.50
2022-11-24T15:53:32.914Z,44.83
2022-11-24T15:56:03.238Z,50.33
2022-11-24T15:58:31.980Z,53.37
2022-11-24T16:01:00.736Z,49.70
2022-11-24T16:06:24.596Z,57.70
2022-11-24T16:08:54.567Z,45.13
2022-11-24T16:11:23.778Z,41.17
2022-11-24T16:13:54.060Z,43.97
2022-11-24T16:16:25.024Z,46.27
2022-11-24T16:18:53.857Z,41.23
2022-11-24T16:21:22.738Z,44.63
2022-11-24T16:23:51.468Z,44.87
2022-11-24T16:26:20.883Z,45.47
2022-11-24T16:28:49.751Z,43.97
2022-11-24T16:31:19.290Z,47.77
2022-11-24T16:33:48.627Z,44.90
2022-11-24T16:36:17.341Z,43.53
2022-11-24T16:38:46.091Z,44.70
2022-11-24T16:41:15.422Z,50.30
2022-11-24T16:43:44.133Z,49.57
2022-11-24T16:46:19.354Z,48.97
2022-11-24T16:48:52.626Z,49.07
2022-11-24T16:51:23.871Z,49.30
2022-11-24T16:53:58.637Z,50.23
2022-11-24T16:56:28.652Z,48.60
2022-11-24T16:58:57.395Z,54.87
2022-11-24T17:01:26.193Z,48.77
2022-11-24T17:03:55.660Z,48.80
2022-11-24T17:06:25.474Z,50.83
2022-11-24T17:08:56.145Z,57.50
2022-11-24T17:11:29.287Z,58.25
2022-11-24T17:14:01.108Z,55.45
2022-11-24T17:16:32.971Z,59.00
2022-11-24T17:19:07.896Z,51.60
2022-11-24T17:21:37.955Z,56.37
2022-11-24T17:24:15.230Z,57.63
2022-11-24T17:26:55.784Z,59.20
2022-11-24T17:29:25.374Z,53.15
2022-11-24T17:31:54.141Z,52.37
2022-11-24T17:34:25.367Z,57.67
2022-11-24T17:36:54.619Z,57.93
2022-11-24T17:39:28.295Z,61.60
2022-11-24T17:41:57.725Z,56.57
2022-11-24T17:44:26.737Z,59.83
2022-11-24T17:46:55.612Z,61.17
2022-11-24T17:49:24.489Z,57.53
2022-11-24T17:51:53.891Z,64.60
2022-11-24T17:54:45.511Z,55.73
2022-11-24T17:57:13.064Z,64.57
2022-11-24T17:59:41.989Z,68.00
2022-11-24T18:02:10.910Z,71.80
2022-11-24T18:04:40.192Z,61.67
2022-11-24T18:07:09.037Z,65.70
2022-11-24T18:09:38.149Z,68.83
2022-11-24T18:12:08.254Z,72.07
2022-11-24T18:14:37.448Z,72.53
2022-11-24T18:17:07.002Z,78.03
2022-11-24T18:19:35.981Z,134.17
2022-11-24T18:22:04.805Z,73.00
2022-11-24T18:24:33.562Z,62.60
2022-11-24T18:27:06.246Z,69.53
2022-11-24T18:29:35.939Z,68.87
2022-11-24T18:32:06.902Z,72.60
2022-11-24T18:34:37.163Z,77.57
2022-11-24T18:37:16.072Z,83.30
2022-11-24T18:39:44.705Z,73.55
2022-11-24T18:42:13.556Z,76.00
2022-11-24T18:44:42.493Z,65.47
2022-11-24T18:47:11.624Z,65.47
2022-11-24T18:49:40.440Z,66.70
2022-11-24T18:52:10.457Z,81.17
2022-11-24T18:54:39.397Z,82.47
2022-11-24T18:57:08.818Z,92.47
2022-11-24T18:59:39.166Z,82.10
2022-11-24T19:02:13.118Z,75.73
2022-11-24T19:04:50.736Z,81.07
2022-11-24T19:07:21.436Z,76.53
2022-11-24T19:09:51.170Z,73.47
2022-11-24T19:12:20.145Z,74.73
2022-11-24T19:14:49.326Z,71.57
2022-11-24T19:17:18.159Z,76.60
2022-11-24T19:19:50.702Z,77.07
2022-11-24T19:22:20.213Z,77.87
2022-11-24T19:24:50.676Z,82.40
2022-11-24T19:27:21.407Z,72.47
2022-11-24T19:29:51.092Z,79.40
2022-11-24T19:32:27.351Z,81.53
2022-11-24T19:34:56.110Z,82.90
2022-11-24T19:37:26.156Z,80.90
2022-11-24T19:39:54.915Z,76.30
2022-11-24T19:42:26.164Z,92.83
2022-11-24T19:44:56.878Z,86.83
2022-11-24T19:47:27.308Z,85.03
2022-11-24T19:49:56.166Z,85.10
2022-11-24T19:52:27.926Z,79.67
2022-11-24T19:54:59.321Z,85.90
2022-11-24T19:57:28.528Z,80.90
2022-11-24T19:59:57.460Z,87.03
2022-11-24T20:02:29.030Z,77.93
2022-11-24T20:04:58.350Z,92.13
2022-11-24T20:07:30.029Z,78.97
2022-11-24T20:10:07.374Z,79.90
2022-11-24T20:12:36.758Z,86.47
2022-11-24T20:15:08.117Z,75.77
2022-11-24T20:17:37.349Z,76.07
2022-11-24T20:20:07.872Z,82.53
2022-11-24T20:22:36.617Z,80.87
2022-11-24T20:25:08.790Z,84.07
2022-11-24T20:27:37.661Z,83.10
2022-11-24T20:30:10.196Z,66.73
2022-11-24T20:32:39.092Z,68.07
2022-11-24T20:35:13.556Z,69.57
2022-11-24T20:37:48.103Z,62.40
2022-11-24T20:40:17.232Z,55.40
2022-11-24T20:42:46.155Z,61.60
2022-11-24T20:45:17.902Z,66.87
2022-11-24T20:47:46.660Z,63.53
2022-11-24T20:50:15.454Z,60.47
2022-11-24T20:52:44.168Z,63.97
2022-11-24T20:55:14.216Z,68.90
2022-11-24T20:57:45.624Z,66.53
2022-11-24T21:00:15.762Z,70.93
2022-11-24T21:02:44.541Z,72.73
2022-11-24T21:05:14.245Z,72.53
2022-11-24T21:07:45.414Z,68.13
2022-11-24T21:10:14.404Z,66.33
2022-11-24T21:12:43.315Z,66.23
2022-11-24T21:15:16.468Z,76.03
2022-11-24T21:17:45.441Z,67.53
2022-11-24T21:20:14.295Z,66.07
2022-11-24T21:22:43.035Z,77.70
2022-11-24T21:25:11.887Z,72.20
2022-11-24T21:27:41.069Z,74.83
2022-11-24T21:30:12.236Z,74.77
2022-11-24T21:32:41.314Z,75.60
2022-11-24T21:35:10.588Z,78.47
2022-11-24T21:37:39.507Z,68.00
2022-11-24T21:40:09.955Z,68.43
2022-11-24T21:42:38.825Z,75.77
2022-11-24T21:45:11.301Z,71.77
2022-11-24T21:47:42.120Z,70.53
2022-11-24T21:50:12.278Z,79.67
2022-11-24T21:52:41.150Z,82.17
2022-11-24T21:55:10.255Z,76.63
2022-11-24T21:57:39.104Z,80.00
2022-11-24T22:00:09.538Z,83.00
2022-11-24T22:02:38.536Z,85.33
2022-11-24T22:05:10.477Z,84.00
2022-11-24T22:07:40.081Z,82.47
2022-11-24T22:10:13.484Z,81.35
2022-11-24T22:12:42.942Z,85.03
2022-11-24T22:15:12.025Z,87.07
2022-11-24T22:17:40.779Z,80.63
2022-11-24T22:20:11.774Z,81.53
2022-11-24T22:22:40.553Z,82.90
2022-11-24T22:25:10.160Z,78.90
2022-11-24T22:27:38.988Z,82.43
2022-11-24T22:30:10.528Z,83.37
2022-11-24T22:32:39.352Z,91.47
2022-11-24T22:35:10.041Z,80.60
2022-11-24T22:37:39.073Z,89.97
2022-11-24T22:40:09.903Z,81.23
2022-11-24T22:42:41.699Z,83.70
2022-11-24T22:45:11.521Z,83.20
2022-11-24T22:47:40.300Z,90.60
2022-11-24T22:50:14.251Z,80.70
2022-11-24T22:52:43.027Z,82.42
2022-11-24T22:55:11.826Z,73.85
2022-11-24T22:57:48.051Z,82.07
2022-11-24T23:00:21.463Z,65.03
2022-11-24T23:02:51.474Z,76.42
2022-11-24T23:05:24.132Z,75.73
2022-11-24T23:07:53.573Z,83.13
2022-11-24T23:10:27.393Z,74.20
2022-11-24T23:12:56.327Z,76.65
2022-11-24T23:15:24.962Z,87.90
2022-11-24T23:17:53.510Z,66.70
2022-11-24T23:20:24.466Z,74.27
2022-11-24T23:22:56.427Z,83.57
2022-11-24T23:25:25.018Z,81.97
2022-11-24T23:27:53.539Z,95.13
2022-11-24T23:30:24.502Z,87.83
2022-11-24T23:32:58.340Z,87.17
2022-11-24T23:35:29.829Z,90.80
2022-11-24T23:38:07.346Z,79.73
2022-11-24T23:40:36.834Z,78.87
2022-11-24T23:43:11.226Z,76.27
2022-11-24T23:45:39.771Z,66.90
2022-11-24T23:48:08.367Z,78.93
2022-11-24T23:50:37.080Z,73.55
2022-11-24T23:53:05.863Z,74.20
2022-11-24T23:55:34.536Z,70.80
2022-11-24T23:58:04.822Z,76.03
